sensor_id;sensor_type;location;lat;lon;timestamp;pressure;altitude;pressure_sealevel;temperature;humidity
61761;BME280;47664;51.660;-0.100;2023-03-22T00:01:44;99719.03;;;9.47;63.81
61761;BME280;47664;51.660;-0.100;2023-03-22T00:04:11;99714.76;;;9.43;63.61
61761;BME280;47664;51.660;-0.100;2023-03-22T00:06:39;99712.09;;;9.03;64.70
61761;BME280;47664;51.660;-0.100;2023-03-22T00:09:06;99703.01;;;9.43;63.70
61761;BME280;47664;51.660;-0.100;2023-03-22T00:11:33;99698.66;;;9.75;62.87
61761;BME280;47664;51.660;-0.100;2023-03-22T00:14:01;99691.88;;;9.21;63.02
61761;BME280;47664;51.660;-0.100;2023-03-22T00:16:27;99693.03;;;8.84;64.37
61761;BME280;47664;51.660;-0.100;2023-03-22T00:18:54;99689.80;;;9.29;63.72
61761;BME280;47664;51.660;-0.100;2023-03-22T00:21:21;99694.35;;;9.14;64.81
61761;BME280;47664;51.660;-0.100;2023-03-22T00:23:48;99686.69;;;9.03;64.18
61761;BME280;47664;51.660;-0.100;2023-03-22T00:26:16;99683.36;;;8.69;65.30
61761;BME280;47664;51.660;-0.100;2023-03-22T00:28:43;99683.52;;;8.90;66.29
61761;BME280;47664;51.660;-0.100;2023-03-22T00:31:10;99675.64;;;9.03;65.91
61761;BME280;47664;51.660;-0.100;2023-03-22T00:33:37;99679.99;;;8.68;66.07
61761;BME280;47664;51.660;-0.100;2023-03-22T00:36:06;99676.77;;;8.48;67.40
61761;BME280;47664;51.660;-0.100;2023-03-22T00:38:34;99676.03;;;8.87;66.52
61761;BME280;47664;51.660;-0.100;2023-03-22T00:41:06;99664.52;;;9.12;66.08
61761;BME280;47664;51.660;-0.100;2023-03-22T00:43:34;99656.46;;;9.11;65.23
61761;BME280;47664;51.660;-0.100;2023-03-22T00:46:01;99652.79;;;9.08;65.93
61761;BME280;47664;51.660;-0.100;2023-03-22T00:48:29;99648.83;;;9.07;65.89
61761;BME280;47664;51.660;-0.100;2023-03-22T00:50:56;99650.48;;;8.52;66.42
61761;BME280;47664;51.660;-0.100;2023-03-22T00:53:23;99647.28;;;8.89;65.96
61761;BME280;47664;51.660;-0.100;2023-03-22T00:55:50;99639.83;;;9.06;65.29
61761;BME280;47664;51.660;-0.100;2023-03-22T00:58:18;99625.01;;;8.52;66.97
61761;BME280;47664;51.660;-0.100;2023-03-22T01:00:45;99624.55;;;9.22;65.66
61761;BME280;47664;51.660;-0.100;2023-03-22T01:03:13;99613.42;;;8.94;65.69
61761;BME280;47664;51.660;-0.100;2023-03-22T01:05:41;99604.00;;;9.02;65.05
61761;BME280;47664;51.660;-0.100;2023-03-22T01:08:11;99598.51;;;9.46;64.05
61761;BME280;47664;51.660;-0.100;2023-03-22T01:10:39;99590.91;;;9.08;65.60
61761;BME280;47664;51.660;-0.100;2023-03-22T01:13:07;99569.35;;;9.02;65.58
61761;BME280;47664;51.660;-0.100;2023-03-22T01:15:35;99574.41;;;8.83;65.30
61761;BME280;47664;51.660;-0.100;2023-03-22T01:18:03;99575.25;;;9.29;64.20
61761;BME280;47664;51.660;-0.100;2023-03-22T01:20:31;99570.89;;;8.82;66.09
61761;BME280;47664;51.660;-0.100;2023-03-22T01:22:58;99563.78;;;9.17;66.60
61761;BME280;47664;51.660;-0.100;2023-03-22T01:25:26;99565.30;;;9.27;65.22
61761;BME280;47664;51.660;-0.100;2023-03-22T01:27:52;99557.89;;;9.30;65.45
61761;BME280;47664;51.660;-0.100;2023-03-22T01:30:19;99568.23;;;9.48;65.22
61761;BME280;47664;51.660;-0.100;2023-03-22T01:32:46;99561.23;;;8.80;66.77
61761;BME280;47664;51.660;-0.100;2023-03-22T01:35:13;99564.89;;;8.82;67.29
61761;BME280;47664;51.660;-0.100;2023-03-22T01:37:41;99550.03;;;8.09;68.35
61761;BME280;47664;51.660;-0.100;2023-03-22T01:40:11;99546.23;;;8.87;67.86
61761;BME280;47664;51.660;-0.100;2023-03-22T01:42:38;99548.14;;;9.13;67.24
61761;BME280;47664;51.660;-0.100;2023-03-22T01:45:34;99538.48;;;8.41;68.99
61761;BME280;47664;51.660;-0.100;2023-03-22T01:48:06;99535.88;;;8.78;67.90
61761;BME280;47664;51.660;-0.100;2023-03-22T01:50:35;99527.66;;;8.74;68.91
61761;BME280;47664;51.660;-0.100;2023-03-22T01:53:05;99519.08;;;8.57;68.07
61761;BME280;47664;51.660;-0.100;2023-03-22T01:55:33;99522.85;;;8.92;66.63
61761;BME280;47664;51.660;-0.100;2023-03-22T01:58:02;99515.91;;;8.78;68.13
61761;BME280;47664;51.660;-0.100;2023-03-22T02:00:31;99519.80;;;8.91;68.36
61761;BME280;47664;51.660;-0.100;2023-03-22T02:02:59;99516.41;;;8.76;67.07
61761;BME280;47664;51.660;-0.100;2023-03-22T02:05:26;99510.05;;;9.45;66.89
61761;BME280;47664;51.660;-0.100;2023-03-22T02:07:54;99507.62;;;9.28;67.03
61761;BME280;47664;51.660;-0.100;2023-03-22T02:10:24;99499.51;;;8.88;68.55
61761;BME280;47664;51.660;-0.100;2023-03-22T02:13:07;99497.13;;;8.76;68.89
61761;BME280;47664;51.660;-0.100;2023-03-22T02:15:44;99495.45;;;8.38;69.40
61761;BME280;47664;51.660;-0.100;2023-03-22T02:18:25;99493.83;;;8.97;68.46
61761;BME280;47664;51.660;-0.100;2023-03-22T02:21:35;99489.14;;;9.09;66.75
61761;BME280;47664;51.660;-0.100;2023-03-22T02:24:15;99487.20;;;9.30;67.15
61761;BME280;47664;51.660;-0.100;2023-03-22T02:28:07;99475.94;;;8.43;67.80
61761;BME280;47664;51.660;-0.100;2023-03-22T02:31:01;99470.87;;;8.61;68.99
61761;BME280;47664;51.660;-0.100;2023-03-22T02:33:51;99466.01;;;8.57;69.36
61761;BME280;47664;51.660;-0.100;2023-03-22T02:36:40;99458.43;;;9.02;68.22
61761;BME280;47664;51.660;-0.100;2023-03-22T02:39:24;99459.06;;;8.82;68.19
61761;BME280;47664;51.660;-0.100;2023-03-22T02:42:09;99460.68;;;8.22;70.30
61761;BME280;47664;51.660;-0.100;2023-03-22T02:44:41;99453.87;;;9.04;68.64
61761;BME280;47664;51.660;-0.100;2023-03-22T02:47:18;99436.73;;;9.55;67.31
61761;BME280;47664;51.660;-0.100;2023-03-22T02:49:53;99435.94;;;9.14;67.74
61761;BME280;47664;51.660;-0.100;2023-03-22T02:52:28;99436.16;;;8.75;68.05
61761;BME280;47664;51.660;-0.100;2023-03-22T02:55:04;99439.30;;;7.99;69.62
61761;BME280;47664;51.660;-0.100;2023-03-22T02:57:36;99432.69;;;9.14;68.24
61761;BME280;47664;51.660;-0.100;2023-03-22T03:00:13;99424.78;;;9.15;67.58
61761;BME280;47664;51.660;-0.100;2023-03-22T03:02:45;99426.99;;;8.99;67.18
61761;BME280;47664;51.660;-0.100;2023-03-22T03:05:15;99419.96;;;8.73;67.43
61761;BME280;47664;51.660;-0.100;2023-03-22T03:07:45;99416.54;;;9.38;66.38
61761;BME280;47664;51.660;-0.100;2023-03-22T03:10:15;99412.75;;;9.74;65.32
61761;BME280;47664;51.660;-0.100;2023-03-22T03:12:43;99414.24;;;8.96;66.75
61761;BME280;47664;51.660;-0.100;2023-03-22T03:15:14;99405.09;;;9.27;66.78
61761;BME280;47664;51.660;-0.100;2023-03-22T03:17:55;99395.72;;;8.70;67.96
61761;BME280;47664;51.660;-0.100;2023-03-22T03:20:29;99395.65;;;8.71;67.65
61761;BME280;47664;51.660;-0.100;2023-03-22T03:23:13;99388.29;;;8.73;68.62
61761;BME280;47664;51.660;-0.100;2023-03-22T03:25:47;99387.31;;;8.12;69.15
61761;BME280;47664;51.660;-0.100;2023-03-22T03:28:25;99377.26;;;8.91;67.05
61761;BME280;47664;51.660;-0.100;2023-03-22T03:30:59;99387.88;;;8.81;67.86
61761;BME280;47664;51.660;-0.100;2023-03-22T03:33:32;99383.73;;;9.03;68.05
61761;BME280;47664;51.660;-0.100;2023-03-22T03:36:04;99374.67;;;8.64;67.65
61761;BME280;47664;51.660;-0.100;2023-03-22T03:38:38;99376.08;;;8.58;68.27
61761;BME280;47664;51.660;-0.100;2023-03-22T03:41:11;99365.28;;;8.71;67.71
61761;BME280;47664;51.660;-0.100;2023-03-22T03:43:40;99363.47;;;8.51;68.01
61761;BME280;47664;51.660;-0.100;2023-03-22T03:46:08;99358.30;;;8.83;68.39
61761;BME280;47664;51.660;-0.100;2023-03-22T03:48:38;99369.49;;;8.82;67.59
61761;BME280;47664;51.660;-0.100;2023-03-22T03:51:07;99359.19;;;8.90;68.52
61761;BME280;47664;51.660;-0.100;2023-03-22T03:53:34;99370.15;;;9.01;67.70
61761;BME280;47664;51.660;-0.100;2023-03-22T03:56:02;99373.29;;;8.94;68.51
61761;BME280;47664;51.660;-0.100;2023-03-22T03:58:28;99363.97;;;8.95;69.03
61761;BME280;47664;51.660;-0.100;2023-03-22T04:00:55;99358.38;;;8.78;68.54
61761;BME280;47664;51.660;-0.100;2023-03-22T04:03:23;99358.04;;;9.00;68.90
61761;BME280;47664;51.660;-0.100;2023-03-22T04:05:50;99368.42;;;8.03;70.27
61761;BME280;47664;51.660;-0.100;2023-03-22T04:08:17;99359.38;;;8.50;69.93
61761;BME280;47664;51.660;-0.100;2023-03-22T04:10:48;99369.60;;;7.83;69.36
61761;BME280;47664;51.660;-0.100;2023-03-22T04:13:16;99352.56;;;8.89;69.71
61761;BME280;47664;51.660;-0.100;2023-03-22T04:15:43;99357.39;;;9.01;69.45
61761;BME280;47664;51.660;-0.100;2023-03-22T04:18:10;99354.46;;;8.34;70.83
61761;BME280;47664;51.660;-0.100;2023-03-22T04:20:38;99347.83;;;8.26;71.36
61761;BME280;47664;51.660;-0.100;2023-03-22T04:23:06;99353.41;;;8.39;72.04
61761;BME280;47664;51.660;-0.100;2023-03-22T04:25:33;99357.71;;;8.62;72.43
61761;BME280;47664;51.660;-0.100;2023-03-22T04:28:00;99348.43;;;8.89;70.78
61761;BME280;47664;51.660;-0.100;2023-03-22T04:30:27;99351.76;;;9.08;70.19
61761;BME280;47664;51.660;-0.100;2023-03-22T04:32:55;99350.57;;;8.59;71.02
61761;BME280;47664;51.660;-0.100;2023-03-22T04:35:23;99349.14;;;8.44;72.81
61761;BME280;47664;51.660;-0.100;2023-03-22T04:37:49;99346.21;;;7.73;72.10
61761;BME280;47664;51.660;-0.100;2023-03-22T04:40:17;99350.43;;;8.71;72.51
61761;BME280;47664;51.660;-0.100;2023-03-22T04:42:44;99351.66;;;8.38;72.69
61761;BME280;47664;51.660;-0.100;2023-03-22T04:45:12;99351.47;;;8.69;74.05
61761;BME280;47664;51.660;-0.100;2023-03-22T04:47:40;99356.10;;;8.37;75.19
61761;BME280;47664;51.660;-0.100;2023-03-22T04:50:08;99353.38;;;8.33;74.94
61761;BME280;47664;51.660;-0.100;2023-03-22T04:52:36;99352.18;;;8.88;73.60
61761;BME280;47664;51.660;-0.100;2023-03-22T04:55:04;99345.13;;;8.47;74.48
61761;BME280;47664;51.660;-0.100;2023-03-22T04:57:31;99353.98;;;8.31;75.32
61761;BME280;47664;51.660;-0.100;2023-03-22T04:59:58;99353.33;;;8.62;74.81
61761;BME280;47664;51.660;-0.100;2023-03-22T05:02:25;99352.22;;;8.62;74.24
61761;BME280;47664;51.660;-0.100;2023-03-22T05:04:52;99355.62;;;8.30;74.13
61761;BME280;47664;51.660;-0.100;2023-03-22T05:07:19;99355.08;;;8.51;73.80
61761;BME280;47664;51.660;-0.100;2023-03-22T05:09:46;99346.36;;;8.42;74.08
61761;BME280;47664;51.660;-0.100;2023-03-22T05:12:13;99353.50;;;8.71;73.46
61761;BME280;47664;51.660;-0.100;2023-03-22T05:14:40;99348.08;;;8.28;74.50
61761;BME280;47664;51.660;-0.100;2023-03-22T05:17:07;99347.77;;;8.39;75.11
61761;BME280;47664;51.660;-0.100;2023-03-22T05:19:34;99351.06;;;8.65;75.04
61761;BME280;47664;51.660;-0.100;2023-03-22T05:22:01;99350.97;;;8.37;74.80
61761;BME280;47664;51.660;-0.100;2023-03-22T05:24:28;99344.43;;;8.24;75.47
61761;BME280;47664;51.660;-0.100;2023-03-22T05:26:55;99337.61;;;8.54;74.66
61761;BME280;47664;51.660;-0.100;2023-03-22T05:29:22;99344.73;;;8.43;73.50
61761;BME280;47664;51.660;-0.100;2023-03-22T05:31:50;99349.36;;;7.88;73.54
61761;BME280;47664;51.660;-0.100;2023-03-22T05:34:17;99348.56;;;8.86;72.89
61761;BME280;47664;51.660;-0.100;2023-03-22T05:36:44;99344.45;;;7.98;73.70
61761;BME280;47664;51.660;-0.100;2023-03-22T05:39:11;99346.17;;;8.42;74.38
61761;BME280;47664;51.660;-0.100;2023-03-22T05:41:39;99343.82;;;8.00;75.31
61761;BME280;47664;51.660;-0.100;2023-03-22T05:44:06;99350.06;;;8.25;76.01
61761;BME280;47664;51.660;-0.100;2023-03-22T05:46:33;99344.79;;;8.11;76.80
61761;BME280;47664;51.660;-0.100;2023-03-22T05:49:00;99341.16;;;7.97;76.66
61761;BME280;47664;51.660;-0.100;2023-03-22T05:51:27;99343.99;;;8.57;75.50
61761;BME280;47664;51.660;-0.100;2023-03-22T05:53:54;99343.51;;;8.57;73.36
61761;BME280;47664;51.660;-0.100;2023-03-22T05:56:21;99344.91;;;8.55;74.36
61761;BME280;47664;51.660;-0.100;2023-03-22T05:58:48;99350.44;;;8.52;75.01
61761;BME280;47664;51.660;-0.100;2023-03-22T06:01:15;99351.33;;;8.19;76.12
61761;BME280;47664;51.660;-0.100;2023-03-22T06:03:43;99350.03;;;7.53;76.43
61761;BME280;47664;51.660;-0.100;2023-03-22T06:06:10;99348.04;;;8.48;75.05
61761;BME280;47664;51.660;-0.100;2023-03-22T06:08:38;99345.91;;;8.28;74.14
61761;BME280;47664;51.660;-0.100;2023-03-22T06:11:06;99341.81;;;8.61;74.24
61761;BME280;47664;51.660;-0.100;2023-03-22T06:13:33;99351.32;;;8.58;75.56
61761;BME280;47664;51.660;-0.100;2023-03-22T06:16:01;99347.03;;;8.23;76.13
61761;BME280;47664;51.660;-0.100;2023-03-22T06:18:29;99348.28;;;8.07;76.60
61761;BME280;47664;51.660;-0.100;2023-03-22T06:20:57;99343.71;;;8.36;75.40
61761;BME280;47664;51.660;-0.100;2023-03-22T06:23:24;99344.60;;;8.20;76.16
61761;BME280;47664;51.660;-0.100;2023-03-22T06:25:51;99342.99;;;7.34;76.95
61761;BME280;47664;51.660;-0.100;2023-03-22T06:28:18;99343.52;;;8.35;76.70
61761;BME280;47664;51.660;-0.100;2023-03-22T06:30:46;99342.08;;;7.70;75.29
61761;BME280;47664;51.660;-0.100;2023-03-22T06:33:13;99339.32;;;8.48;75.02
61761;BME280;47664;51.660;-0.100;2023-03-22T06:35:40;99338.23;;;8.06;74.35
61761;BME280;47664;51.660;-0.100;2023-03-22T06:38:08;99339.14;;;8.95;73.76
61761;BME280;47664;51.660;-0.100;2023-03-22T06:40:36;99333.81;;;9.01;73.54
61761;BME280;47664;51.660;-0.100;2023-03-22T06:43:03;99335.90;;;8.72;74.22
61761;BME280;47664;51.660;-0.100;2023-03-22T06:45:30;99329.34;;;8.81;73.07
61761;BME280;47664;51.660;-0.100;2023-03-22T06:47:58;99331.98;;;8.77;73.00
61761;BME280;47664;51.660;-0.100;2023-03-22T06:50:26;99322.67;;;9.06;73.47
61761;BME280;47664;51.660;-0.100;2023-03-22T06:52:53;99318.81;;;8.40;74.22
61761;BME280;47664;51.660;-0.100;2023-03-22T06:55:20;99306.44;;;9.11;73.36
61761;BME280;47664;51.660;-0.100;2023-03-22T06:57:47;99295.23;;;8.02;73.35
61761;BME280;47664;51.660;-0.100;2023-03-22T07:00:15;99302.19;;;8.92;74.09
61761;BME280;47664;51.660;-0.100;2023-03-22T07:02:42;99310.22;;;8.62;73.01
61761;BME280;47664;51.660;-0.100;2023-03-22T07:05:10;99297.55;;;9.46;72.69
61761;BME280;47664;51.660;-0.100;2023-03-22T07:07:37;99271.04;;;9.68;70.96
61761;BME280;47664;51.660;-0.100;2023-03-22T07:10:05;99279.81;;;9.31;70.71
61761;BME280;47664;51.660;-0.100;2023-03-22T07:12:32;99278.88;;;9.46;70.81
61761;BME280;47664;51.660;-0.100;2023-03-22T07:15:00;99298.32;;;9.10;72.07
61761;BME280;47664;51.660;-0.100;2023-03-22T07:17:27;99310.20;;;9.13;72.31
61761;BME280;47664;51.660;-0.100;2023-03-22T07:19:54;99297.06;;;8.82;72.04
61761;BME280;47664;51.660;-0.100;2023-03-22T07:22:21;99268.58;;;8.89;72.90
61761;BME280;47664;51.660;-0.100;2023-03-22T07:24:49;99274.62;;;8.00;73.33
61761;BME280;47664;51.660;-0.100;2023-03-22T07:27:16;99304.36;;;8.87;73.84
61761;BME280;47664;51.660;-0.100;2023-03-22T07:29:43;99321.79;;;8.71;73.06
61761;BME280;47664;51.660;-0.100;2023-03-22T07:32:11;99339.40;;;9.29;71.56
61761;BME280;47664;51.660;-0.100;2023-03-22T07:34:38;99341.24;;;9.32;72.41
61761;BME280;47664;51.660;-0.100;2023-03-22T07:37:05;99330.56;;;8.69;73.05
61761;BME280;47664;51.660;-0.100;2023-03-22T07:39:32;99345.96;;;9.14;73.12
61761;BME280;47664;51.660;-0.100;2023-03-22T07:42:00;99347.17;;;8.44;73.96
61761;BME280;47664;51.660;-0.100;2023-03-22T07:44:27;99335.97;;;8.50;74.47
61761;BME280;47664;51.660;-0.100;2023-03-22T07:46:59;99332.55;;;8.93;74.11
61761;BME280;47664;51.660;-0.100;2023-03-22T07:49:26;99336.92;;;8.68;74.48
61761;BME280;47664;51.660;-0.100;2023-03-22T07:51:53;99338.14;;;8.40;74.31
61761;BME280;47664;51.660;-0.100;2023-03-22T07:54:20;99344.06;;;8.56;74.70
61761;BME280;47664;51.660;-0.100;2023-03-22T07:56:48;99348.50;;;8.41;73.29
61761;BME280;47664;51.660;-0.100;2023-03-22T07:59:15;99357.01;;;9.12;72.67
61761;BME280;47664;51.660;-0.100;2023-03-22T08:01:44;99347.98;;;8.81;72.48
61761;BME280;47664;51.660;-0.100;2023-03-22T08:04:10;99350.24;;;9.12;72.38
61761;BME280;47664;51.660;-0.100;2023-03-22T08:06:38;99344.71;;;9.47;71.59
61761;BME280;47664;51.660;-0.100;2023-03-22T08:09:05;99344.84;;;9.36;72.39
61761;BME280;47664;51.660;-0.100;2023-03-22T08:11:32;99340.52;;;9.86;71.32
61761;BME280;47664;51.660;-0.100;2023-03-22T08:13:59;99345.79;;;9.40;71.13
61761;BME280;47664;51.660;-0.100;2023-03-22T08:16:27;99353.44;;;9.25;73.22
61761;BME280;47664;51.660;-0.100;2023-03-22T08:18:54;99349.07;;;9.21;73.07
61761;BME280;47664;51.660;-0.100;2023-03-22T08:21:21;99354.48;;;9.64;73.26
61761;BME280;47664;51.660;-0.100;2023-03-22T08:23:48;99352.87;;;9.19;73.14
61761;BME280;47664;51.660;-0.100;2023-03-22T08:26:15;99351.63;;;9.79;72.93
61761;BME280;47664;51.660;-0.100;2023-03-22T08:28:42;99358.52;;;8.76;73.91
61761;BME280;47664;51.660;-0.100;2023-03-22T08:31:11;99361.22;;;9.17;74.31
61761;BME280;47664;51.660;-0.100;2023-03-22T08:33:39;99361.55;;;9.36;73.76
61761;BME280;47664;51.660;-0.100;2023-03-22T08:36:08;99353.42;;;9.12;74.89
61761;BME280;47664;51.660;-0.100;2023-03-22T08:38:36;99360.79;;;9.01;75.97
61761;BME280;47664;51.660;-0.100;2023-03-22T08:41:03;99354.54;;;8.97;74.74
61761;BME280;47664;51.660;-0.100;2023-03-22T08:43:31;99349.03;;;9.51;73.79
61761;BME280;47664;51.660;-0.100;2023-03-22T08:45:58;99343.75;;;8.91;74.76
61761;BME280;47664;51.660;-0.100;2023-03-22T08:48:26;99349.45;;;9.33;74.05
61761;BME280;47664;51.660;-0.100;2023-03-22T08:50:53;99349.48;;;8.88;74.94
61761;BME280;47664;51.660;-0.100;2023-03-22T08:53:20;99347.12;;;9.21;74.61
61761;BME280;47664;51.660;-0.100;2023-03-22T08:55:48;99353.44;;;8.34;75.34
61761;BME280;47664;51.660;-0.100;2023-03-22T08:58:16;99352.88;;;9.03;75.47
61761;BME280;47664;51.660;-0.100;2023-03-22T09:00:43;99368.63;;;8.24;76.19
61761;BME280;47664;51.660;-0.100;2023-03-22T09:03:11;99367.50;;;8.97;76.47
61761;BME280;47664;51.660;-0.100;2023-03-22T09:05:39;99362.12;;;9.12;75.28
61761;BME280;47664;51.660;-0.100;2023-03-22T09:08:07;99370.92;;;9.35;73.84
61761;BME280;47664;51.660;-0.100;2023-03-22T09:10:37;99369.70;;;9.53;73.92
61761;BME280;47664;51.660;-0.100;2023-03-22T09:13:04;99367.81;;;9.42;74.14
61761;BME280;47664;51.660;-0.100;2023-03-22T09:15:32;99377.11;;;9.39;75.17
61761;BME280;47664;51.660;-0.100;2023-03-22T09:17:59;99371.13;;;9.08;75.81
61761;BME280;47664;51.660;-0.100;2023-03-22T09:20:26;99374.58;;;9.41;75.94
61761;BME280;47664;51.660;-0.100;2023-03-22T09:22:53;99370.41;;;8.72;75.78
61761;BME280;47664;51.660;-0.100;2023-03-22T09:25:20;99381.50;;;9.60;74.70
61761;BME280;47664;51.660;-0.100;2023-03-22T09:27:48;99386.98;;;8.72;75.35
61761;BME280;47664;51.660;-0.100;2023-03-22T09:30:15;99385.94;;;9.39;74.74
61761;BME280;47664;51.660;-0.100;2023-03-22T09:32:42;99386.48;;;9.08;75.60
61761;BME280;47664;51.660;-0.100;2023-03-22T09:35:10;99380.95;;;9.04;76.23
61761;BME280;47664;51.660;-0.100;2023-03-22T09:37:38;99375.26;;;9.45;75.18
61761;BME280;47664;51.660;-0.100;2023-03-22T09:40:07;99376.12;;;9.46;75.15
61761;BME280;47664;51.660;-0.100;2023-03-22T09:42:37;99366.47;;;10.00;72.69
61761;BME280;47664;51.660;-0.100;2023-03-22T09:45:12;99378.02;;;9.67;73.99
61761;BME280;47664;51.660;-0.100;2023-03-22T09:47:44;99381.85;;;10.21;72.42
61761;BME280;47664;51.660;-0.100;2023-03-22T09:50:15;99387.75;;;10.40;72.63
61761;BME280;47664;51.660;-0.100;2023-03-22T09:52:44;99388.06;;;9.59;72.61
61761;BME280;47664;51.660;-0.100;2023-03-22T09:55:18;99391.65;;;10.07;72.51
61761;BME280;47664;51.660;-0.100;2023-03-22T09:57:53;99391.54;;;9.40;72.27
61761;BME280;47664;51.660;-0.100;2023-03-22T10:00:29;99394.02;;;10.53;70.59
61761;BME280;47664;51.660;-0.100;2023-03-22T10:03:10;99391.96;;;9.97;71.54
61761;BME280;47664;51.660;-0.100;2023-03-22T10:05:48;99393.49;;;9.63;71.67
61761;BME280;47664;51.660;-0.100;2023-03-22T10:08:25;99384.79;;;10.29;71.46
61761;BME280;47664;51.660;-0.100;2023-03-22T10:10:57;99380.90;;;9.57;70.79
61761;BME280;47664;51.660;-0.100;2023-03-22T10:13:30;99388.73;;;10.31;70.54
61761;BME280;47664;51.660;-0.100;2023-03-22T10:16:01;99381.17;;;10.32;69.61
61761;BME280;47664;51.660;-0.100;2023-03-22T10:18:33;99385.51;;;10.64;69.44
61761;BME280;47664;51.660;-0.100;2023-03-22T10:21:04;99381.41;;;10.45;68.86
61761;BME280;47664;51.660;-0.100;2023-03-22T10:23:37;99387.77;;;10.42;69.59
61761;BME280;47664;51.660;-0.100;2023-03-22T10:26:06;99385.39;;;10.57;68.77
61761;BME280;47664;51.660;-0.100;2023-03-22T10:28:38;99380.30;;;10.25;69.15
61761;BME280;47664;51.660;-0.100;2023-03-22T10:31:11;99397.34;;;10.27;68.60
61761;BME280;47664;51.660;-0.100;2023-03-22T10:33:41;99397.46;;;10.42;67.54
61761;BME280;47664;51.660;-0.100;2023-03-22T10:36:13;99399.85;;;10.94;67.55
61761;BME280;47664;51.660;-0.100;2023-03-22T10:38:45;99405.35;;;10.17;68.24
61761;BME280;47664;51.660;-0.100;2023-03-22T10:41:16;99397.27;;;10.90;67.99
61761;BME280;47664;51.660;-0.100;2023-03-22T10:43:47;99393.42;;;10.38;68.50
61761;BME280;47664;51.660;-0.100;2023-03-22T10:46:18;99388.83;;;11.41;68.28
61761;BME280;47664;51.660;-0.100;2023-03-22T10:48:48;99389.94;;;10.36;67.14
61761;BME280;47664;51.660;-0.100;2023-03-22T10:51:23;99401.02;;;11.22;67.94
61761;BME280;47664;51.660;-0.100;2023-03-22T10:53:54;99399.14;;;10.89;67.22
61761;BME280;47664;51.660;-0.100;2023-03-22T10:56:22;99388.81;;;11.97;66.08
61761;BME280;47664;51.660;-0.100;2023-03-22T10:58:50;99392.07;;;10.49;65.21
61761;BME280;47664;51.660;-0.100;2023-03-22T11:01:26;99393.39;;;11.46;65.23
61761;BME280;47664;51.660;-0.100;2023-03-22T11:03:56;99394.98;;;11.70;65.68
61761;BME280;47664;51.660;-0.100;2023-03-22T11:06:25;99398.40;;;12.32;63.91
61761;BME280;47664;51.660;-0.100;2023-03-22T11:09:00;99396.15;;;11.46;63.95
61761;BME280;47664;51.660;-0.100;2023-03-22T11:11:29;99403.10;;;11.85;64.07
61761;BME280;47664;51.660;-0.100;2023-03-22T11:14:04;99394.43;;;11.54;63.03
61761;BME280;47664;51.660;-0.100;2023-03-22T11:16:41;99397.35;;;11.53;63.46
61761;BME280;47664;51.660;-0.100;2023-03-22T11:19:14;99399.03;;;12.02;62.80
61761;BME280;47664;51.660;-0.100;2023-03-22T11:21:46;99401.13;;;11.82;61.81
61761;BME280;47664;51.660;-0.100;2023-03-22T11:24:13;99405.63;;;12.49;60.55
61761;BME280;47664;51.660;-0.100;2023-03-22T11:26:41;99415.18;;;11.96;59.49
61761;BME280;47664;51.660;-0.100;2023-03-22T11:29:14;99411.94;;;11.92;60.96
61761;BME280;47664;51.660;-0.100;2023-03-22T11:31:54;99407.71;;;11.21;61.01
61761;BME280;47664;51.660;-0.100;2023-03-22T11:34:24;99408.34;;;11.71;61.12
61761;BME280;47664;51.660;-0.100;2023-03-22T11:36:51;99398.47;;;11.82;61.61
61761;BME280;47664;51.660;-0.100;2023-03-22T11:39:18;99391.87;;;11.71;60.20
61761;BME280;47664;51.660;-0.100;2023-03-22T11:41:46;99383.25;;;12.14;59.54
61761;BME280;47664;51.660;-0.100;2023-03-22T11:44:16;99380.34;;;11.81;59.48
61761;BME280;47664;51.660;-0.100;2023-03-22T11:46:50;99378.34;;;12.26;58.33
61761;BME280;47664;51.660;-0.100;2023-03-22T11:49:24;99379.37;;;12.56;56.84
61761;BME280;47664;51.660;-0.100;2023-03-22T11:51:54;99382.56;;;11.71;55.53
61761;BME280;47664;51.660;-0.100;2023-03-22T11:54:27;99387.17;;;12.17;55.09
61761;BME280;47664;51.660;-0.100;2023-03-22T11:56:57;99385.94;;;11.93;56.01
61761;BME280;47664;51.660;-0.100;2023-03-22T11:59:27;99392.31;;;12.88;53.86
61761;BME280;47664;51.660;-0.100;2023-03-22T12:01:59;99389.50;;;12.25;54.83
61761;BME280;47664;51.660;-0.100;2023-03-22T12:04:34;99379.42;;;11.90;54.79
61761;BME280;47664;51.660;-0.100;2023-03-22T12:07:08;99372.84;;;12.58;54.51
61761;BME280;47664;51.660;-0.100;2023-03-22T12:09:40;99372.26;;;12.19;53.68
61761;BME280;47664;51.660;-0.100;2023-03-22T12:12:13;99361.57;;;11.90;55.24
61761;BME280;47664;51.660;-0.100;2023-03-22T12:14:47;99364.30;;;12.06;55.11
61761;BME280;47664;51.660;-0.100;2023-03-22T12:17:25;99356.68;;;12.57;55.10
61761;BME280;47664;51.660;-0.100;2023-03-22T12:20:03;99353.89;;;12.54;54.34
61761;BME280;47664;51.660;-0.100;2023-03-22T12:22:35;99356.29;;;12.77;53.83
61761;BME280;47664;51.660;-0.100;2023-03-22T12:25:10;99354.26;;;13.18;53.93
61761;BME280;47664;51.660;-0.100;2023-03-22T12:27:40;99350.13;;;12.97;53.62
61761;BME280;47664;51.660;-0.100;2023-03-22T12:30:13;99347.90;;;12.64;54.22
61761;BME280;47664;51.660;-0.100;2023-03-22T12:32:45;99345.97;;;13.17;53.34
61761;BME280;47664;51.660;-0.100;2023-03-22T12:35:19;99343.56;;;13.66;53.49
61761;BME280;47664;51.660;-0.100;2023-03-22T12:37:50;99336.44;;;13.53;53.03
61761;BME280;47664;51.660;-0.100;2023-03-22T12:40:22;99347.92;;;13.28;55.00
61761;BME280;47664;51.660;-0.100;2023-03-22T12:42:58;99339.06;;;13.40;54.05
61761;BME280;47664;51.660;-0.100;2023-03-22T12:45:28;99331.59;;;13.84;53.03
61761;BME280;47664;51.660;-0.100;2023-03-22T12:48:04;99330.39;;;13.11;53.31
61761;BME280;47664;51.660;-0.100;2023-03-22T12:50:37;99337.37;;;13.64;52.59
61761;BME280;47664;51.660;-0.100;2023-03-22T12:53:11;99339.81;;;13.64;52.66
61761;BME280;47664;51.660;-0.100;2023-03-22T12:55:40;99351.08;;;13.96;52.87
61761;BME280;47664;51.660;-0.100;2023-03-22T12:58:08;99351.82;;;13.16;54.97
61761;BME280;47664;51.660;-0.100;2023-03-22T13:00:41;99347.66;;;13.12;55.98
61761;BME280;47664;51.660;-0.100;2023-03-22T13:03:21;99341.69;;;13.35;55.82
61761;BME280;47664;51.660;-0.100;2023-03-22T13:05:59;99334.69;;;13.69;54.14
61761;BME280;47664;51.660;-0.100;2023-03-22T13:09:08;99337.07;;;13.66;53.62
61761;BME280;47664;51.660;-0.100;2023-03-22T13:11:37;99325.50;;;13.73;51.63
61761;BME280;47664;51.660;-0.100;2023-03-22T13:14:05;99331.40;;;13.47;53.62